Time;durP1;ratioP1;P1;durP2;ratioP2;P2;SDS_P1;SDS_P2;PMS_P1;PMS_P2;Temp;Humidity;BMP_temperature;BMP_pressure;BME280_temperature;BME280_humidity;BME280_pressure;Samples;Min_cycle;Max_cycle;Signal;HPM_P1;HPM_P2
2023/12/31 00:02:24;;;;;;;3.10;1.08;;;;;;;-148.88;100.00;-17125.47;5033729;28;20488;-86
2023/12/31 00:04:49;;;;;;;3.78;1.58;;;;;;;-148.88;100.00;-17125.47;5033706;28;20021;-86
2023/12/31 00:07:14;;;;;;;2.35;1.48;;;;;;;-148.88;100.00;-17125.47;5033655;28;20029;-85
2023/12/31 00:09:39;;;;;;;4.88;1.42;;;;;;;-148.88;100.00;-17125.47;5033699;28;20057;-85
2023/12/31 00:12:05;;;;;;;4.03;1.30;;;;;;;-148.88;100.00;-17125.47;5033521;28;20050;-85
2023/12/31 00:14:30;;;;;;;4.35;1.20;;;;;;;-148.88;100.00;-17125.47;5033846;28;20387;-86
2023/12/31 00:16:56;;;;;;;4.25;1.67;;;;;;;-148.88;100.00;-17125.47;5033768;28;20365;-85
2023/12/31 00:19:21;;;;;;;2.85;1.25;;;;;;;-148.88;100.00;-17125.47;5015938;28;20026;-85
2023/12/31 00:21:46;;;;;;;3.83;1.40;;;;;;;-148.88;100.00;-17125.47;5033909;28;20120;-85
2023/12/31 00:24:12;;;;;;;5.78;1.27;;;;;;;-148.88;100.00;-17125.47;5033540;28;20028;-85
2023/12/31 00:26:37;;;;;;;4.28;1.25;;;;;;;-148.88;100.00;-17125.47;5033653;28;20036;-86
2023/12/31 00:29:03;;;;;;;3.55;1.02;;;;;;;-148.88;100.00;-17125.47;5033281;28;20108;-87
2023/12/31 00:31:28;;;;;;;4.40;1.50;;;;;;;-148.88;100.00;-17125.47;5033360;28;20049;-87
2023/12/31 00:33:56;;;;;;;3.08;1.00;;;;;;;-148.88;100.00;-17125.47;5033987;28;20029;-88
2023/12/31 00:36:22;;;;;;;4.70;1.00;;;;;;;-148.88;100.00;-17125.47;5033456;28;20388;-87
2023/12/31 00:38:48;;;;;;;3.20;1.13;;;;;;;-148.88;100.00;-17125.47;5033217;28;20021;-87
2023/12/31 00:41:14;;;;;;;2.28;1.15;;;;;;;-148.88;100.00;-17125.47;5015587;28;20084;-86
2023/12/31 00:43:39;;;;;;;4.32;1.35;;;;;;;-148.88;100.00;-17125.47;5033405;28;20408;-87
2023/12/31 00:46:04;;;;;;;2.95;1.00;;;;;;;-148.88;100.00;-17125.47;5033136;28;20021;-87
2023/12/31 00:48:30;;;;;;;3.70;0.88;;;;;;;-148.88;100.00;-17125.47;5033415;28;20119;-87
2023/12/31 00:50:55;;;;;;;6.28;1.45;;;;;;;-148.88;100.00;-17125.47;5033164;28;20025;-87
2023/12/31 00:53:20;;;;;;;2.85;1.10;;;;;;;-148.88;100.00;-17125.47;5032990;28;20033;-87
2023/12/31 00:55:45;;;;;;;1.80;1.00;;;;;;;-148.88;100.00;-17125.47;5015639;28;20503;-87
2023/12/31 00:58:11;;;;;;;2.22;0.88;;;;;;;-148.88;100.00;-17125.47;5033257;28;20043;-87
2023/12/31 01:00:36;;;;;;;4.93;1.40;;;;;;;-148.88;100.00;-17125.47;5032909;28;20104;-85
2023/12/31 01:03:02;;;;;;;3.08;0.80;;;;;;;-148.88;100.00;-17125.47;5033229;28;20021;-87
2023/12/31 01:05:27;;;;;;;3.60;1.80;;;;;;;-148.88;100.00;-17125.47;5033353;28;20021;-87
2023/12/31 01:07:52;;;;;;;3.75;0.85;;;;;;;-148.88;100.00;-17125.47;5037025;28;20028;-87
2023/12/31 01:10:17;;;;;;;4.82;1.02;;;;;;;-148.88;100.00;-17125.47;5036933;28;20107;-87
2023/12/31 01:12:43;;;;;;;6.05;1.35;;;;;;;-148.88;100.00;-17125.47;5036912;28;20111;-87
2023/12/31 01:15:09;;;;;;;6.78;1.70;;;;;;;-148.88;100.00;-17125.47;5019427;28;20033;-86
2023/12/31 01:17:35;;;;;;;2.47;1.02;;;;;;;-148.88;100.00;-17125.47;5036839;28;20105;-87
2023/12/31 01:20:00;;;;;;;2.58;0.88;;;;;;;-148.88;100.00;-17125.47;5018933;28;20120;-86
2023/12/31 01:22:25;;;;;;;2.80;1.17;;;;;;;-148.88;100.00;-17125.47;5036861;28;20108;-87
2023/12/31 01:24:51;;;;;;;3.70;1.45;;;;;;;-148.88;100.00;-17125.47;5037054;28;20021;-87
2023/12/31 01:27:16;;;;;;;2.30;0.90;;;;;;;-148.88;100.00;-17125.47;5036666;28;20108;-86
2023/12/31 01:29:41;;;;;;;2.47;1.02;;;;;;;-148.88;100.00;-17125.47;5019157;28;20017;-87
2023/12/31 01:32:07;;;;;;;2.78;1.15;;;;;;;-148.88;100.00;-17125.47;5019130;28;20029;-87
2023/12/31 01:34:32;;;;;;;3.78;1.10;;;;;;;-148.88;100.00;-17125.47;5036469;28;20488;-88
2023/12/31 01:36:57;;;;;;;1.98;0.82;;;;;;;-148.88;100.00;-17125.47;5036444;28;20116;-87
2023/12/31 01:39:22;;;;;;;2.55;1.20;;;;;;;-148.88;100.00;-17125.47;5036620;28;20108;-88
2023/12/31 01:41:48;;;;;;;1.58;0.90;;;;;;;-148.88;100.00;-17125.47;5036568;28;20392;-87
2023/12/31 01:44:14;;;;;;;3.42;1.25;;;;;;;-148.88;100.00;-17125.47;5036364;28;20510;-87
2023/12/31 01:46:40;;;;;;;3.90;1.20;;;;;;;-148.88;100.00;-17125.47;5042761;28;20056;-88
2023/12/31 01:49:09;;;;;;;4.18;1.25;;;;;;;-148.88;100.00;-17125.47;5042133;28;20113;-87
2023/12/31 01:51:35;;;;;;;3.28;1.23;;;;;;;-148.88;100.00;-17125.47;5036178;28;20399;-87
2023/12/31 01:54:02;;;;;;;3.67;1.02;;;;;;;-148.88;100.00;-17125.47;5036432;28;20055;-88
2023/12/31 01:56:28;;;;;;;2.25;1.10;;;;;;;-148.88;100.00;-17125.47;5036751;28;20021;-86
2023/12/31 01:58:55;;;;;;;3.88;1.40;;;;;;;-148.88;100.00;-17125.47;5036223;28;20503;-86
2023/12/31 02:01:22;;;;;;;3.50;0.98;;;;;;;-148.88;100.00;-17125.47;5036405;28;20034;-87
2023/12/31 02:03:48;;;;;;;4.75;1.20;;;;;;;-148.88;100.00;-17125.47;5036227;28;20052;-87
2023/12/31 02:06:13;;;;;;;3.72;0.98;;;;;;;-148.88;100.00;-17125.47;5035925;28;20075;-88
2023/12/31 02:08:38;;;;;;;4.13;0.90;;;;;;;-148.88;100.00;-17125.47;5036904;28;20096;-87
2023/12/31 02:11:05;;;;;;;3.85;1.23;;;;;;;-148.88;100.00;-17125.47;5036232;28;20017;-86
2023/12/31 02:13:31;;;;;;;3.85;0.68;;;;;;;-148.88;100.00;-17125.47;5036024;28;20029;-88
2023/12/31 02:15:56;;;;;;;2.13;0.98;;;;;;;-148.88;100.00;-17125.47;5035863;28;20443;-87
2023/12/31 02:18:24;;;;;;;3.42;0.80;;;;;;;-148.88;100.00;-17125.47;5035627;28;20029;-86
2023/12/31 02:20:50;;;;;;;2.00;0.90;;;;;;;-148.88;100.00;-17125.47;5035552;28;20025;-87
2023/12/31 02:23:15;;;;;;;2.08;0.77;;;;;;;-148.88;100.00;-17125.47;5035607;28;20079;-88
2023/12/31 02:25:43;;;;;;;4.30;1.35;;;;;;;-148.88;100.00;-17125.47;5035593;28;20515;-88
2023/12/31 02:28:11;;;;;;;2.95;1.30;;;;;;;-148.88;100.00;-17125.47;5035662;28;20029;-87
2023/12/31 02:30:36;;;;;;;4.03;1.02;;;;;;;-148.88;100.00;-17125.47;5035738;28;20021;-88
2023/12/31 02:33:01;;;;;;;4.03;1.45;;;;;;;-148.88;100.00;-17125.47;5035409;28;20021;-87
2023/12/31 02:35:26;;;;;;;3.42;1.08;;;;;;;-148.88;100.00;-17125.47;5035623;28;20428;-87
2023/12/31 02:37:52;;;;;;;1.90;1.13;;;;;;;-148.88;100.00;-17125.47;5035907;28;20022;-88
2023/12/31 02:40:18;;;;;;;4.10;1.40;;;;;;;-148.88;100.00;-17125.47;5035434;28;20075;-87
2023/12/31 02:42:44;;;;;;;3.28;1.38;;;;;;;-148.88;100.00;-17125.47;5035757;28;20044;-87
2023/12/31 02:45:09;;;;;;;5.38;1.35;;;;;;;-148.88;100.00;-17125.47;5035709;28;20061;-87
2023/12/31 02:47:35;;;;;;;2.17;1.00;;;;;;;-148.88;100.00;-17125.47;5035235;28;20030;-87
2023/12/31 02:50:00;;;;;;;5.70;1.35;;;;;;;-148.88;100.00;-17125.47;5035316;28;20450;-87
2023/12/31 02:52:25;;;;;;;5.70;1.38;;;;;;;-148.88;100.00;-17125.47;5035100;28;20540;-87
2023/12/31 02:54:51;;;;;;;7.13;1.83;;;;;;;-148.88;100.00;-17125.47;5035510;28;20017;-88
2023/12/31 02:57:18;;;;;;;4.75;1.33;;;;;;;-148.88;100.00;-17125.47;5035187;28;20029;-86
2023/12/31 02:59:43;;;;;;;6.05;1.55;;;;;;;-148.88;100.00;-17125.47;5034956;28;20028;-87
2023/12/31 03:02:08;;;;;;;3.33;1.15;;;;;;;-148.88;100.00;-17125.47;5034994;28;20021;-87
2023/12/31 03:04:34;;;;;;;5.63;1.38;;;;;;;-148.88;100.00;-17125.47;5035162;28;20045;-87
2023/12/31 03:06:59;;;;;;;4.20;1.63;;;;;;;-148.88;100.00;-17125.47;5034986;28;20116;-87
2023/12/31 03:09:24;;;;;;;5.22;1.20;;;;;;;-148.88;100.00;-17125.47;5034953;28;20538;-87
2023/12/31 03:11:51;;;;;;;6.05;1.73;;;;;;;-148.88;100.00;-17125.47;5034741;28;20480;-87
2023/12/31 03:14:17;;;;;;;4.68;1.70;;;;;;;-148.88;100.00;-17125.47;5035083;28;20056;-87
2023/12/31 03:16:47;;;;;;;5.30;1.80;;;;;;;-148.88;100.00;-17125.47;5034724;28;20506;-86
2023/12/31 03:19:13;;;;;;;4.28;1.63;;;;;;;-148.88;100.00;-17125.47;5033344;28;20033;-86
2023/12/31 03:21:40;;;;;;;6.63;1.63;;;;;;;-148.88;100.00;-17125.47;5034548;28;20025;-88
2023/12/31 03:24:06;;;;;;;4.47;1.52;;;;;;;-148.88;100.00;-17125.47;5034492;28;20035;-87
2023/12/31 03:26:32;;;;;;;3.80;1.40;;;;;;;-148.88;100.00;-17125.47;5016896;28;20365;-89
2023/12/31 03:28:57;;;;;;;4.50;1.30;;;;;;;-148.88;100.00;-17125.47;5016175;28;20503;-88
2023/12/31 03:31:23;;;;;;;2.13;1.27;;;;;;;-148.88;100.00;-17125.47;5034580;28;20461;-88
2023/12/31 03:33:48;;;;;;;3.85;1.30;;;;;;;-148.88;100.00;-17125.47;5016620;28;20037;-88
2023/12/31 03:36:14;;;;;;;3.15;1.15;;;;;;;-148.88;100.00;-17125.47;5034201;28;20462;-87
2023/12/31 03:38:40;;;;;;;3.58;1.45;;;;;;;-148.88;100.00;-17125.47;5034450;28;20033;-89
2023/12/31 03:41:05;;;;;;;7.22;1.30;;;;;;;-148.88;100.00;-17125.47;5017464;28;20025;-88
2023/12/31 03:43:31;;;;;;;5.93;1.45;;;;;;;-148.88;100.00;-17125.47;5016254;28;20095;-88
2023/12/31 03:45:57;;;;;;;4.88;1.40;;;;;;;-148.88;100.00;-17125.47;5018802;28;20037;-88
2023/12/31 03:48:23;;;;;;;6.20;1.50;;;;;;;-148.88;100.00;-17125.47;5034363;28;20029;-88
2023/12/31 03:50:49;;;;;;;3.38;1.50;;;;;;;-148.88;100.00;-17125.47;5034320;28;20025;-88
2023/12/31 03:53:14;;;;;;;3.60;1.33;;;;;;;-148.88;100.00;-17125.47;5017089;28;20028;-87
2023/12/31 03:55:40;;;;;;;4.07;1.50;;;;;;;-148.88;100.00;-17125.47;5034208;28;20021;-87
2023/12/31 03:58:06;;;;;;;4.80;1.77;;;;;;;-148.88;100.00;-17125.47;5016801;28;20017;-88
2023/12/31 04:00:32;;;;;;;3.60;1.58;;;;;;;-148.88;100.00;-17125.47;5033811;28;20047;-86
2023/12/31 04:02:58;;;;;;;4.20;1.50;;;;;;;-148.88;100.00;-17125.47;5033667;28;20021;-87
2023/12/31 04:05:23;;;;;;;4.30;1.70;;;;;;;-148.88;100.00;-17125.47;5033943;28;20032;-89
2023/12/31 04:07:49;;;;;;;2.95;1.63;;;;;;;-148.88;100.00;-17125.47;5033737;28;20025;-89
2023/12/31 04:10:14;;;;;;;3.60;1.52;;;;;;;-148.88;100.00;-17125.47;5033798;28;20021;-87
2023/12/31 04:12:40;;;;;;;3.42;1.88;;;;;;;-148.88;100.00;-17125.47;5033502;28;20025;-88
2023/12/31 04:15:08;;;;;;;7.75;1.73;;;;;;;-148.88;100.00;-17125.47;5033871;28;20024;-88
2023/12/31 04:17:34;;;;;;;5.45;1.80;;;;;;;-148.88;100.00;-17125.47;5033510;28;20407;-87
2023/12/31 04:19:59;;;;;;;3.53;1.73;;;;;;;-148.88;100.00;-17125.47;5033560;28;20025;-88
2023/12/31 04:22:25;;;;;;;7.38;2.50;;;;;;;-148.88;100.00;-17125.47;5033443;28;20021;-88
2023/12/31 04:24:50;;;;;;;3.55;1.80;;;;;;;-148.88;100.00;-17125.47;5033752;28;20104;-89
2023/12/31 04:27:15;;;;;;;3.80;1.55;;;;;;;-148.88;100.00;-17125.47;5033624;28;20022;-87
2023/12/31 04:29:41;;;;;;;4.95;1.70;;;;;;;-148.88;100.00;-17125.47;5033402;28;20043;-88
2023/12/31 04:32:06;;;;;;;3.40;1.60;;;;;;;-148.88;100.00;-17125.47;5033530;28;20495;-87
2023/12/31 04:34:32;;;;;;;4.28;2.20;;;;;;;-148.88;100.00;-17125.47;5015736;28;20547;-86
2023/12/31 04:36:57;;;;;;;3.83;1.90;;;;;;;-148.88;100.00;-17125.47;5033332;28;20025;-86
2023/12/31 04:39:24;;;;;;;3.50;1.40;;;;;;;-148.88;100.00;-17125.47;5016253;28;20523;-86
2023/12/31 04:41:49;;;;;;;6.75;2.15;;;;;;;-148.88;100.00;-17125.47;5032277;28;20048;-87
2023/12/31 04:44:15;;;;;;;3.35;1.65;;;;;;;-148.88;100.00;-17125.47;5033454;28;20096;-88
2023/12/31 04:46:40;;;;;;;4.32;1.95;;;;;;;-148.88;100.00;-17125.47;5033461;28;20104;-88
2023/12/31 04:49:05;;;;;;;11.02;2.10;;;;;;;-148.88;100.00;-17125.47;5015477;28;20021;-87
2023/12/31 04:51:31;;;;;;;3.70;1.63;;;;;;;-148.88;100.00;-17125.47;5033354;28;20057;-88
2023/12/31 04:53:57;;;;;;;4.45;1.70;;;;;;;-148.88;100.00;-17125.47;5033366;28;20022;-88
2023/12/31 04:56:26;;;;;;;4.78;2.33;;;;;;;-148.88;100.00;-17125.47;5034092;28;20060;-87
2023/12/31 04:58:54;;;;;;;5.35;2.63;;;;;;;-148.88;100.00;-17125.47;5015374;28;20116;-87
2023/12/31 05:01:19;;;;;;;5.38;1.95;;;;;;;-148.88;100.00;-17125.47;5033247;28;20049;-88
2023/12/31 05:03:46;;;;;;;4.13;2.13;;;;;;;-148.88;100.00;-17125.47;5033223;28;20056;-87
2023/12/31 05:06:15;;;;;;;3.15;1.70;;;;;;;-148.88;100.00;-17125.47;5033085;28;20091;-88
2023/12/31 05:08:43;;;;;;;6.68;2.03;;;;;;;-148.88;100.00;-17125.47;5033092;28;20032;-86
2023/12/31 05:11:08;;;;;;;7.30;2.33;;;;;;;-148.88;100.00;-17125.47;5033193;28;20407;-87
2023/12/31 05:13:34;;;;;;;4.30;1.83;;;;;;;-148.88;100.00;-17125.47;5032782;28;20495;-88
2023/12/31 05:16:02;;;;;;;4.65;1.95;;;;;;;-148.88;100.00;-17125.47;5032978;28;20032;-87
2023/12/31 05:18:29;;;;;;;6.38;2.38;;;;;;;-148.88;100.00;-17125.47;5032983;28;20392;-87
2023/12/31 05:20:55;;;;;;;6.50;2.35;;;;;;;-148.88;100.00;-17125.47;5032900;28;20488;-88
2023/12/31 05:23:20;;;;;;;5.43;2.40;;;;;;;-148.88;100.00;-17125.47;5033063;28;20051;-88
2023/12/31 05:25:46;;;;;;;5.75;2.63;;;;;;;-148.88;100.00;-17125.47;5033285;28;20365;-88
2023/12/31 05:28:11;;;;;;;6.45;2.38;;;;;;;-148.88;100.00;-17125.47;5033020;28;20036;-88
2023/12/31 05:30:41;;;;;;;5.95;3.10;;;;;;;-148.88;100.00;-17125.47;5033084;28;20014;-87
2023/12/31 05:33:06;;;;;;;4.35;2.25;;;;;;;-148.88;100.00;-17125.47;5032749;28;20396;-88
2023/12/31 05:35:31;;;;;;;5.57;2.72;;;;;;;-148.88;100.00;-17125.47;5032733;28;20033;-88
2023/12/31 05:37:57;;;;;;;5.30;3.40;;;;;;;-148.88;100.00;-17125.47;5015171;28;20036;-88
2023/12/31 05:40:22;;;;;;;4.35;2.05;;;;;;;-148.88;100.00;-17125.47;5015149;28;20060;-88
2023/12/31 05:42:47;;;;;;;7.05;2.63;;;;;;;-148.88;100.00;-17125.47;5033034;28;20029;-89
2023/12/31 05:45:13;;;;;;;4.72;2.33;;;;;;;-148.88;100.00;-17125.47;5032725;28;20534;-88
2023/12/31 05:47:38;;;;;;;5.88;2.20;;;;;;;-148.88;100.00;-17125.47;5033012;28;20035;-88
2023/12/31 05:50:04;;;;;;;4.68;2.28;;;;;;;-148.88;100.00;-17125.47;5032759;28;20021;-88
2023/12/31 05:52:29;;;;;;;5.10;2.03;;;;;;;-148.88;100.00;-17125.47;5034868;28;20021;-88
2023/12/31 05:54:55;;;;;;;4.72;2.35;;;;;;;-148.88;100.00;-17125.47;5038604;28;20028;-88
2023/12/31 05:57:20;;;;;;;5.85;2.28;;;;;;;-148.88;100.00;-17125.47;5036311;28;20022;-88
2023/12/31 05:59:45;;;;;;;7.70;2.95;;;;;;;-148.88;100.00;-17125.47;5036337;28;20357;-87
2023/12/31 06:02:11;;;;;;;6.15;2.65;;;;;;;-148.88;100.00;-17125.47;5036078;28;20029;-89
2023/12/31 06:04:36;;;;;;;8.98;3.00;;;;;;;-148.88;100.00;-17125.47;5036919;28;20430;-87
2023/12/31 06:07:01;;;;;;;6.03;2.40;;;;;;;-148.88;100.00;-17125.47;5037129;28;20031;-88
2023/12/31 06:09:27;;;;;;;9.43;3.15;;;;;;;-148.88;100.00;-17125.47;5036861;28;20052;-88
2023/12/31 06:11:52;;;;;;;7.05;2.90;;;;;;;-148.88;100.00;-17125.47;5035770;28;20083;-88
2023/12/31 06:14:18;;;;;;;5.60;2.30;;;;;;;-148.88;100.00;-17125.47;5036410;28;20063;-88
2023/12/31 06:16:45;;;;;;;6.30;2.55;;;;;;;-148.88;100.00;-17125.47;5036295;28;20053;-87
2023/12/31 06:19:11;;;;;;;6.10;2.53;;;;;;;-148.88;100.00;-17125.47;5018888;28;20037;-88
2023/12/31 06:21:36;;;;;;;5.90;2.65;;;;;;;-148.88;100.00;-17125.47;5035892;28;20045;-87
2023/12/31 06:24:01;;;;;;;3.92;2.25;;;;;;;-148.88;100.00;-17125.47;5035855;28;20108;-87
2023/12/31 06:26:27;;;;;;;4.00;2.25;;;;;;;-148.88;100.00;-17125.47;5035580;28;20032;-88
2023/12/31 06:28:53;;;;;;;4.30;2.42;;;;;;;-148.88;100.00;-17125.47;5018194;28;20032;-88
2023/12/31 06:31:18;;;;;;;6.55;2.22;;;;;;;-148.88;100.00;-17125.47;5035921;28;20018;-88
2023/12/31 06:33:44;;;;;;;6.00;2.08;;;;;;;-148.88;100.00;-17125.47;5036180;28;20029;-88
2023/12/31 06:36:09;;;;;;;5.63;2.25;;;;;;;-148.88;100.00;-17125.47;5035871;28;20049;-88
2023/12/31 06:38:35;;;;;;;4.80;2.15;;;;;;;-148.88;100.00;-17125.47;5035886;28;20032;-87
2023/12/31 06:41:07;;;;;;;4.93;2.40;;;;;;;-148.88;100.00;-17125.47;5035061;28;20033;-87
2023/12/31 06:43:33;;;;;;;6.03;1.85;;;;;;;-148.88;100.00;-17125.47;5034950;28;20515;-88
2023/12/31 06:45:58;;;;;;;3.75;2.20;;;;;;;-148.88;100.00;-17125.47;5017239;28;20104;-88
2023/12/31 06:48:23;;;;;;;3.83;1.75;;;;;;;-148.88;100.00;-17125.47;5034983;28;20036;-88
2023/12/31 06:50:49;;;;;;;5.55;2.67;;;;;;;-148.88;100.00;-17125.47;5034820;28;20022;-88
2023/12/31 06:53:15;;;;;;;4.13;1.75;;;;;;;-148.88;100.00;-17125.47;5034931;28;20022;-88
2023/12/31 06:55:40;;;;;;;3.35;1.80;;;;;;;-148.88;100.00;-17125.47;5034758;28;20503;-88
2023/12/31 06:58:05;;;;;;;3.63;2.08;;;;;;;-148.88;100.00;-17125.47;5034519;28;20029;-88
2023/12/31 07:00:31;;;;;;;3.65;1.33;;;;;;;-148.88;100.00;-17125.47;5034846;28;20175;-88
2023/12/31 07:02:56;;;;;;;4.15;1.80;;;;;;;-148.88;100.00;-17125.47;5016130;28;20028;-89
2023/12/31 07:05:21;;;;;;;3.03;1.48;;;;;;;-148.88;100.00;-17125.47;5016934;28;20116;-89
2023/12/31 07:07:47;;;;;;;2.80;1.40;;;;;;;-148.88;100.00;-17125.47;5034717;28;20056;-89
2023/12/31 07:10:12;;;;;;;3.80;1.60;;;;;;;-148.88;100.00;-17125.47;5035136;28;20083;-89
2023/12/31 07:12:37;;;;;;;3.75;1.40;;;;;;;-148.88;100.00;-17125.47;5034435;28;20076;-90
2023/12/31 07:15:03;;;;;;;2.10;1.30;;;;;;;-148.88;100.00;-17125.47;5035437;28;20036;-90
2023/12/31 07:17:32;;;;;;;3.80;1.45;;;;;;;-148.88;100.00;-17125.47;5035241;28;20029;-90
2023/12/31 07:19:58;;;;;;;5.35;2.30;;;;;;;-148.88;100.00;-17125.47;5034543;28;20375;-88
2023/12/31 07:22:24;;;;;;;4.10;1.65;;;;;;;-148.88;100.00;-17125.47;5034290;28;20034;-88
2023/12/31 07:24:50;;;;;;;3.60;1.65;;;;;;;-148.88;100.00;-17125.47;5016860;28;20022;-88
2023/12/31 07:27:15;;;;;;;2.83;1.50;;;;;;;-148.88;100.00;-17125.47;5016543;28;20090;-88
2023/12/31 07:29:41;;;;;;;2.75;1.17;;;;;;;-148.88;100.00;-17125.47;5034557;28;20018;-88
2023/12/31 07:32:06;;;;;;;5.35;1.67;;;;;;;-148.88;100.00;-17125.47;5034341;28;20018;-89
2023/12/31 07:34:31;;;;;;;2.50;1.30;;;;;;;-148.88;100.00;-17125.47;5032631;28;20026;-88
2023/12/31 07:36:57;;;;;;;5.07;1.48;;;;;;;-148.88;100.00;-17125.47;5032738;28;20017;-88
2023/12/31 07:39:23;;;;;;;3.13;1.55;;;;;;;-148.88;100.00;-17125.47;5016311;28;20100;-88
2023/12/31 07:41:49;;;;;;;2.22;1.20;;;;;;;-148.88;100.00;-17125.47;5033869;28;20022;-87
2023/12/31 07:44:14;;;;;;;2.80;1.42;;;;;;;-148.88;100.00;-17125.47;5033851;28;20045;-88
2023/12/31 07:46:40;;;;;;;3.10;1.30;;;;;;;-148.88;100.00;-17125.47;5033786;28;20021;-88
2023/12/31 07:49:08;;;;;;;3.22;1.20;;;;;;;-148.88;100.00;-17125.47;5033640;28;20055;-89
2023/12/31 07:51:33;;;;;;;2.83;1.40;;;;;;;-148.88;100.00;-17125.47;5034002;28;20025;-89
2023/12/31 07:53:58;;;;;;;2.53;1.45;;;;;;;-148.88;100.00;-17125.47;5033466;28;20401;-89
2023/12/31 07:56:24;;;;;;;4.15;1.63;;;;;;;-148.88;100.00;-17125.47;5034320;28;20383;-88
2023/12/31 07:58:49;;;;;;;2.92;1.40;;;;;;;-148.88;100.00;-17125.47;5016217;28;20029;-88
2023/12/31 08:01:15;;;;;;;3.38;1.55;;;;;;;-148.88;100.00;-17125.47;5033567;28;20036;-88
2023/12/31 08:03:41;;;;;;;3.15;1.40;;;;;;;-148.88;100.00;-17125.47;5034204;28;20034;-89
2023/12/31 08:06:06;;;;;;;3.47;1.60;;;;;;;-148.88;100.00;-17125.47;5016573;28;20479;-89
2023/12/31 08:08:32;;;;;;;3.40;2.05;;;;;;;-148.88;100.00;-17125.47;5015413;28;20042;-87
2023/12/31 08:10:59;;;;;;;3.42;1.42;;;;;;;-148.88;100.00;-17125.47;5033814;28;20049;-89
2023/12/31 08:13:25;;;;;;;3.63;1.50;;;;;;;-148.88;100.00;-17125.47;5033772;28;20025;-87
2023/12/31 08:15:50;;;;;;;2.67;1.73;;;;;;;-148.88;100.00;-17125.47;5018023;28;20035;-87
2023/12/31 08:18:16;;;;;;;3.35;1.67;;;;;;;-148.88;100.00;-17125.47;5033510;28;20083;-88
2023/12/31 08:20:42;;;;;;;3.47;1.55;;;;;;;-148.88;100.00;-17125.47;5033579;28;20065;-88
2023/12/31 08:23:08;;;;;;;3.67;1.90;;;;;;;-148.88;100.00;-17125.47;5033646;28;20491;-88
2023/12/31 08:25:33;;;;;;;4.32;1.65;;;;;;;-148.88;100.00;-17125.47;5033490;28;20029;-87
2023/12/31 08:27:58;;;;;;;6.03;1.50;;;;;;;-148.88;100.00;-17125.47;5033018;28;20464;-87
2023/12/31 08:30:24;;;;;;;5.13;1.83;;;;;;;-148.88;100.00;-17125.47;5015457;28;20067;-87
2023/12/31 08:32:50;;;;;;;4.78;1.60;;;;;;;-148.88;100.00;-17125.47;5015076;28;20400;-87
2023/12/31 08:35:15;;;;;;;4.25;1.50;;;;;;;-148.88;100.00;-17125.47;5032935;28;20025;-87
2023/12/31 08:37:40;;;;;;;2.85;2.00;;;;;;;-148.88;100.00;-17125.47;5015574;28;20124;-88
2023/12/31 08:40:06;;;;;;;3.28;1.70;;;;;;;-148.88;100.00;-17125.47;5032799;28;20118;-87
2023/12/31 08:42:32;;;;;;;3.38;1.20;;;;;;;-148.88;100.00;-17125.47;5032750;28;20053;-86
2023/12/31 08:44:57;;;;;;;2.55;1.40;;;;;;;-148.88;100.00;-17125.47;5032609;28;20018;-88
2023/12/31 08:47:23;;;;;;;3.55;1.60;;;;;;;-148.88;100.00;-17125.47;5015351;28;20472;-87
2023/12/31 08:49:48;;;;;;;2.88;1.58;;;;;;;-148.88;100.00;-17125.47;5033006;28;20550;-86
2023/12/31 08:52:14;;;;;;;3.88;1.60;;;;;;;-148.88;100.00;-17125.47;5032566;28;20033;-87
2023/12/31 08:54:39;;;;;;;2.97;1.50;;;;;;;-148.88;100.00;-17125.47;5015361;28;20053;-86
2023/12/31 08:57:05;;;;;;;2.22;1.10;;;;;;;-148.88;100.00;-17125.47;5032537;28;20032;-86
2023/12/31 08:59:30;;;;;;;3.60;1.30;;;;;;;-148.88;100.00;-17125.47;5015723;28;20033;-86
2023/12/31 09:01:56;;;;;;;2.20;1.30;;;;;;;-148.88;100.00;-17125.47;5014618;28;20018;-86
2023/12/31 09:04:22;;;;;;;3.08;1.52;;;;;;;-148.88;100.00;-17125.47;5014766;28;20056;-87
2023/12/31 09:06:48;;;;;;;4.00;1.30;;;;;;;-148.88;100.00;-17125.47;5032324;28;20024;-87
2023/12/31 09:09:14;;;;;;;2.58;1.40;;;;;;;-148.88;100.00;-17125.47;5032997;28;20025;-87
2023/12/31 09:11:39;;;;;;;3.15;1.73;;;;;;;-148.88;100.00;-17125.47;5014720;28;20021;-87
2023/12/31 09:14:05;;;;;;;3.33;1.40;;;;;;;-148.88;100.00;-17125.47;5032431;28;20108;-86
2023/12/31 09:16:30;;;;;;;2.45;1.13;;;;;;;-148.88;100.00;-17125.47;5032679;28;20023;-85
2023/12/31 09:18:55;;;;;;;2.92;1.70;;;;;;;-148.88;100.00;-17125.47;5032855;28;20026;-87
2023/12/31 09:21:21;;;;;;;4.15;1.38;;;;;;;-148.88;100.00;-17125.47;5032147;28;20057;-86
2023/12/31 09:23:46;;;;;;;6.05;1.40;;;;;;;-148.88;100.00;-17125.47;5032437;28;20387;-87
2023/12/31 09:26:12;;;;;;;2.97;1.27;;;;;;;-148.88;100.00;-17125.47;5032399;28;20064;-87
2023/12/31 09:28:39;;;;;;;1.77;1.00;;;;;;;-148.88;100.00;-17125.47;5018206;28;20099;-87
2023/12/31 09:31:05;;;;;;;3.22;1.75;;;;;;;-148.88;100.00;-17125.47;5018308;28;20083;-86
2023/12/31 09:33:30;;;;;;;2.75;1.70;;;;;;;-148.88;100.00;-17125.47;5034486;28;20037;-87
2023/12/31 09:36:04;;;;;;;2.30;1.20;;;;;;;-148.88;100.00;-17125.47;5036893;28;20021;-87
2023/12/31 09:38:33;;;;;;;2.35;1.15;;;;;;;-148.88;100.00;-17125.47;5036202;28;20484;-88
2023/12/31 09:40:58;;;;;;;2.60;1.40;;;;;;;-148.88;100.00;-17125.47;5036442;28;20048;-86
2023/12/31 09:43:25;;;;;;;2.47;1.13;;;;;;;-148.88;100.00;-17125.47;5036106;28;20464;-86
2023/12/31 09:45:51;;;;;;;5.88;1.38;;;;;;;-148.88;100.00;-17125.47;5035873;28;20469;-87
2023/12/31 09:48:19;;;;;;;2.53;1.55;;;;;;;-148.88;100.00;-17125.47;5036333;28;20025;-86
2023/12/31 09:50:44;;;;;;;2.65;1.17;;;;;;;-148.88;100.00;-17125.47;5019057;28;20040;-86
2023/12/31 09:53:12;;;;;;;2.10;1.17;;;;;;;-148.88;100.00;-17125.47;5019087;28;20021;-86
2023/12/31 09:55:39;;;;;;;2.05;1.15;;;;;;;-148.88;100.00;-17125.47;5036153;28;20041;-86
2023/12/31 09:58:06;;;;;;;3.65;1.40;;;;;;;-148.88;100.00;-17125.47;5036138;28;20476;-87
2023/12/31 10:00:31;;;;;;;2.15;0.95;;;;;;;-148.88;100.00;-17125.47;5035949;28;20028;-87
2023/12/31 10:02:56;;;;;;;3.63;1.27;;;;;;;-148.88;100.00;-17125.47;5038009;28;20029;-86
2023/12/31 10:05:25;;;;;;;3.42;2.10;;;;;;;-148.88;100.00;-17125.47;5036064;28;20048;-87
2023/12/31 10:07:54;;;;;;;2.67;1.20;;;;;;;-148.88;100.00;-17125.47;5036168;28;20053;-87
2023/12/31 10:10:20;;;;;;;3.35;1.20;;;;;;;-148.88;100.00;-17125.47;5037276;28;20100;-87
2023/12/31 10:12:46;;;;;;;3.88;1.90;;;;;;;-148.88;100.00;-17125.47;5036211;28;20032;-87
2023/12/31 10:15:11;;;;;;;2.90;1.58;;;;;;;-148.88;100.00;-17125.47;5036107;28;20033;-85
2023/12/31 10:17:40;;;;;;;3.42;1.30;;;;;;;-148.88;100.00;-17125.47;5035784;28;20029;-87
2023/12/31 10:20:07;;;;;;;3.28;1.63;;;;;;;-148.88;100.00;-17125.47;5034430;28;20021;-87
2023/12/31 10:22:34;;;;;;;4.20;1.50;;;;;;;-148.88;100.00;-17125.47;5018013;28;20459;-87
2023/12/31 10:25:24;;;;;;;4.38;2.05;;;;;;;-148.88;100.00;-17125.47;5043398;28;20029;-88
2023/12/31 10:27:49;;;;;;;3.92;2.25;;;;;;;-148.88;100.00;-17125.47;5058713;28;20026;-88
2023/12/31 10:30:15;;;;;;;2.63;1.30;;;;;;;-148.88;100.00;-17125.47;5047389;28;20108;-87
2023/12/31 10:32:41;;;;;;;4.57;1.88;;;;;;;-148.88;100.00;-17125.47;5035978;28;20033;-87
2023/12/31 10:35:07;;;;;;;2.75;1.40;;;;;;;-148.88;100.00;-17125.47;5035500;28;20032;-88
2023/12/31 10:37:34;;;;;;;3.65;2.20;;;;;;;-148.88;100.00;-17125.47;5034619;28;20029;-87
2023/12/31 10:40:17;;;;;;;3.78;1.40;;;;;;;-148.88;100.00;-17125.47;5016615;28;20475;-88
2023/12/31 10:42:49;;;;;;;4.40;1.60;;;;;;;-148.88;100.00;-17125.47;5035783;28;20040;-87
2023/12/31 10:45:20;;;;;;;2.40;1.40;;;;;;;-148.88;100.00;-17125.47;5017477;28;20124;-86
2023/12/31 10:47:50;;;;;;;3.28;1.90;;;;;;;-148.88;100.00;-17125.47;5016991;28;20391;-86
2023/12/31 10:50:20;;;;;;;4.43;1.65;;;;;;;-148.88;100.00;-17125.47;5035305;28;20018;-87
2023/12/31 10:52:53;;;;;;;3.22;1.38;;;;;;;-148.88;100.00;-17125.47;5016932;28;20033;-86
2023/12/31 10:55:20;;;;;;;4.65;1.58;;;;;;;-148.88;100.00;-17125.47;5017625;28;20021;-87
2023/12/31 10:57:46;;;;;;;4.07;2.22;;;;;;;-148.88;100.00;-17125.47;5017341;28;20492;-89